createdAt,value
2022-12-16T00:01:15.531Z,37.10
2022-12-16T00:07:27.757Z,36.20
2022-12-16T00:13:37.556Z,36.80
2022-12-16T00:19:46.500Z,38.20
2022-12-16T00:25:54.260Z,38.40
2022-12-16T00:32:03.655Z,37.10
2022-12-16T00:38:14.091Z,37.70
2022-12-16T00:44:26.101Z,37.90
2022-12-16T00:50:34.048Z,39.00
2022-12-16T00:56:42.002Z,39.20
2022-12-16T01:02:53.667Z,37.70
2022-12-16T01:09:04.065Z,37.10
2022-12-16T01:15:17.353Z,37.60
2022-12-16T01:21:27.968Z,37.90
2022-12-16T01:27:42.356Z,37.70
2022-12-16T01:33:54.571Z,37.60
2022-12-16T01:40:05.546Z,37.60
2022-12-16T01:46:16.472Z,37.60
2022-12-16T01:52:28.376Z,37.60
2022-12-16T01:58:40.287Z,37.60
2022-12-16T02:05:09.754Z,37.60
2022-12-16T02:11:27.248Z,37.70
2022-12-16T02:17:38.765Z,37.60
2022-12-16T02:24:10.024Z,37.60
2022-12-16T02:30:46.500Z,37.60
2022-12-16T02:37:03.780Z,37.60
2022-12-16T02:43:18.981Z,37.50
2022-12-16T02:49:51.208Z,37.50
2022-12-16T02:56:04.496Z,37.40
2022-12-16T03:02:17.337Z,37.30
2022-12-16T03:08:30.799Z,37.70
2022-12-16T03:14:40.936Z,37.80
2022-12-16T03:20:51.958Z,38.00
2022-12-16T03:27:12.194Z,38.00
2022-12-16T03:33:26.507Z,38.20
2022-12-16T03:39:36.471Z,38.10
2022-12-16T03:45:47.798Z,38.40
2022-12-16T03:51:57.324Z,38.50
2022-12-16T03:58:07.216Z,38.50
2022-12-16T04:04:19.344Z,38.40
2022-12-16T04:10:48.206Z,38.20
2022-12-16T04:17:13.665Z,38.30
2022-12-16T04:23:38.481Z,38.30
2022-12-16T04:30:06.428Z,38.30
2022-12-16T04:36:32.168Z,38.20
2022-12-16T04:42:58.417Z,38.20
2022-12-16T04:49:22.635Z,38.10
2022-12-16T04:55:50.753Z,38.00
2022-12-16T05:02:18.731Z,38.00
2022-12-16T05:08:43.827Z,38.00
2022-12-16T05:15:10.319Z,38.00
2022-12-16T05:21:37.033Z,38.00
2022-12-16T05:28:05.492Z,38.00
2022-12-16T05:34:32.500Z,38.00
2022-12-16T05:40:58.955Z,37.70
2022-12-16T05:47:25.339Z,37.80
2022-12-16T05:53:51.602Z,38.00
2022-12-16T06:00:20.138Z,37.90
2022-12-16T06:06:44.323Z,37.90
2022-12-16T06:13:09.495Z,37.90
2022-12-16T06:19:35.987Z,38.00
2022-12-16T06:26:00.189Z,38.10
2022-12-16T06:32:26.896Z,38.10
2022-12-16T06:38:56.170Z,37.80
2022-12-16T06:45:21.061Z,37.70
2022-12-16T06:51:47.797Z,37.80
2022-12-16T06:58:16.572Z,37.90
2022-12-16T07:04:42.940Z,37.90
2022-12-16T07:11:16.208Z,37.60
2022-12-16T07:17:34.740Z,37.60
2022-12-16T07:24:03.034Z,37.80
2022-12-16T07:30:32.948Z,37.80
2022-12-16T07:37:00.151Z,37.80
2022-12-16T07:43:26.221Z,37.50
2022-12-16T07:49:53.698Z,37.60
2022-12-16T07:56:23.264Z,38.00
2022-12-16T08:02:49.915Z,38.10
2022-12-16T08:09:19.580Z,37.40
2022-12-16T08:15:47.640Z,37.70
2022-12-16T08:22:14.356Z,37.90
2022-12-16T08:28:42.639Z,38.00
2022-12-16T08:35:08.366Z,38.00
2022-12-16T08:41:34.910Z,38.40
2022-12-16T08:48:03.197Z,37.80
2022-12-16T08:54:29.011Z,38.10
2022-12-16T09:00:55.172Z,37.80
2022-12-16T09:07:22.310Z,38.00
2022-12-16T09:13:49.849Z,38.10
2022-12-16T09:20:16.244Z,38.40
2022-12-16T09:26:44.141Z,37.90
2022-12-16T09:33:10.515Z,37.80
2022-12-16T09:39:38.773Z,38.00
2022-12-16T09:46:06.667Z,38.20
2022-12-16T09:52:33.926Z,38.40
2022-12-16T09:58:59.009Z,38.30
2022-12-16T10:05:27.686Z,37.80
2022-12-16T10:11:59.525Z,37.90
2022-12-16T10:18:29.269Z,38.20
2022-12-16T10:25:10.080Z,38.50
2022-12-16T10:31:37.535Z,38.50
2022-12-16T10:38:01.853Z,37.90
2022-12-16T10:44:39.221Z,38.50
2022-12-16T10:51:05.207Z,38.20
2022-12-16T10:57:33.746Z,38.30
2022-12-16T11:04:00.133Z,38.50
2022-12-16T11:10:43.915Z,38.50
2022-12-16T11:17:08.158Z,37.90
2022-12-16T11:23:39.630Z,38.00
2022-12-16T11:30:14.423Z,38.30
2022-12-16T11:36:41.247Z,38.50
2022-12-16T11:43:12.838Z,38.60
2022-12-16T11:49:36.667Z,38.00
2022-12-16T12:02:20.451Z,38.20
2022-12-16T12:08:47.845Z,38.40
2022-12-16T12:15:15.865Z,38.40
2022-12-16T12:21:46.366Z,38.70
2022-12-16T12:28:17.253Z,38.70
2022-12-16T12:34:47.028Z,38.90
2022-12-16T12:41:17.315Z,39.10
2022-12-16T12:47:41.696Z,39.10
2022-12-16T12:54:09.568Z,39.10
2022-12-16T13:00:42.554Z,39.10
2022-12-16T13:07:08.567Z,39.20
2022-12-16T13:13:52.271Z,39.10
2022-12-16T13:20:19.520Z,38.80
2022-12-16T13:26:46.888Z,38.80
2022-12-16T13:33:18.660Z,39.20
2022-12-16T13:39:45.309Z,39.30
2022-12-16T13:46:34.348Z,38.80
2022-12-16T13:53:07.979Z,38.30
2022-12-16T13:59:36.498Z,39.20
2022-12-16T14:06:08.703Z,39.10
2022-12-16T14:12:49.124Z,38.10
2022-12-16T14:19:17.625Z,38.30
2022-12-16T14:25:42.956Z,39.20
2022-12-16T14:32:07.602Z,39.20
2022-12-16T14:38:43.643Z,39.30
2022-12-16T14:45:11.769Z,38.60
2022-12-16T14:51:45.033Z,38.70
2022-12-16T14:58:24.073Z,39.10
2022-12-16T15:04:50.006Z,42.10
2022-12-16T15:11:32.198Z,40.90
2022-12-16T15:18:07.997Z,39.40
2022-12-16T15:24:37.179Z,39.00
2022-12-16T15:31:03.863Z,39.30
2022-12-16T15:37:37.167Z,39.60
2022-12-16T15:44:04.009Z,40.60
2022-12-16T15:50:30.893Z,40.00
2022-12-16T15:57:04.211Z,39.60
2022-12-16T16:04:01.110Z,38.80
2022-12-16T16:16:58.024Z,39.30
2022-12-16T16:23:27.202Z,40.60
2022-12-16T16:29:53.956Z,40.30
2022-12-16T16:36:33.889Z,39.30
2022-12-16T16:43:00.274Z,39.60
2022-12-16T16:49:37.241Z,39.10
2022-12-16T16:56:05.126Z,39.40
2022-12-16T17:02:41.219Z,39.70
2022-12-16T17:09:12.097Z,40.10
2022-12-16T17:15:41.833Z,40.20
2022-12-16T17:22:16.576Z,40.70
2022-12-16T17:28:41.683Z,40.80
2022-12-16T17:35:08.479Z,39.50
2022-12-16T17:41:36.085Z,39.90
2022-12-16T17:48:03.597Z,40.20
2022-12-16T17:54:31.954Z,40.70
2022-12-16T18:00:59.559Z,41.10
2022-12-16T18:07:25.830Z,41.10
2022-12-16T18:13:52.932Z,40.80
2022-12-16T18:20:17.683Z,40.90
2022-12-16T18:26:42.437Z,40.90
2022-12-16T18:33:07.833Z,41.00
2022-12-16T18:39:34.340Z,40.50
2022-12-16T18:45:59.320Z,39.60
2022-12-16T18:52:27.085Z,39.80
2022-12-16T18:58:56.442Z,40.00
2022-12-16T19:05:26.294Z,40.40
2022-12-16T19:11:53.964Z,40.50
2022-12-16T19:18:18.572Z,39.30
2022-12-16T19:24:46.192Z,39.40
2022-12-16T19:31:18.215Z,39.60
2022-12-16T19:37:46.512Z,39.40
2022-12-16T19:44:15.010Z,39.40
2022-12-16T19:50:39.308Z,39.80
2022-12-16T19:57:09.052Z,39.90
2022-12-16T20:03:39.711Z,38.80
2022-12-16T20:10:09.342Z,38.80
2022-12-16T20:16:36.447Z,39.00
2022-12-16T20:23:01.084Z,39.20
2022-12-16T20:29:29.079Z,39.30
2022-12-16T20:35:59.067Z,39.80
2022-12-16T20:42:27.557Z,41.20
2022-12-16T20:48:53.011Z,38.90
2022-12-16T20:55:20.682Z,39.20
2022-12-16T21:02:14.665Z,40.30
2022-12-16T21:08:15.056Z,40.00
2022-12-16T21:14:44.727Z,39.10
2022-12-16T21:21:15.044Z,39.20
2022-12-16T21:27:59.736Z,39.40
2022-12-16T21:34:28.794Z,39.60
2022-12-16T21:40:56.163Z,39.70
2022-12-16T21:47:20.239Z,39.30
2022-12-16T21:53:47.400Z,39.20
2022-12-16T22:00:13.945Z,39.40
2022-12-16T22:13:14.138Z,40.00
2022-12-16T22:19:38.587Z,39.90
2022-12-16T22:26:05.508Z,38.90
2022-12-16T22:32:32.932Z,39.10
2022-12-16T22:38:57.200Z,39.70
2022-12-16T22:45:30.826Z,39.90
2022-12-16T22:51:58.406Z,40.20
2022-12-16T22:58:32.009Z,41.00
2022-12-16T23:04:57.662Z,40.00
2022-12-16T23:11:23.855Z,39.20
2022-12-16T23:17:48.463Z,39.50
2022-12-16T23:24:16.816Z,39.80
2022-12-16T23:30:41.319Z,39.90
2022-12-16T23:37:09.770Z,40.40
2022-12-16T23:43:38.025Z,39.30
2022-12-16T23:50:10.912Z,39.20
2022-12-16T23:56:33.365Z,39.70
